Allan, Canada
Current Conditions -  °F | °C
As of 2:00 PM on Thursday 23 Oct 2014 (Local Time) from CYXE Reporting Station
Broken Clouds Broken Clouds  
Wind Chill: 55°   Ceiling: 25000
Heat Index: 55°   Visibility: 15mi
Dew Point: 43°   Wind: 14mph
Humidity: 63%   Direction: 190°S
Pressure: 29.57"   Gusts: 20mph
Location:  51.9°N, 106.07°W
Report Text: CYXE 232000Z 19012G17KT 15SM FEW140 BKN250 13/06 A2957 RMK AC2CI3 SLP029 DENSITY ALT 2200FT
Loading
Personal Weather Stations






























Interactive Weather Map
Tropical Storm Tracking
New forecast layout! Learn more

10-Day Weather Forecast

Advertisements
Track Severe Weather on mobile